createdAt,value
2022-12-26T00:03:59.890Z,112.93
2022-12-26T00:08:02.077Z,109.18
2022-12-26T00:12:03.990Z,101.88
2022-12-26T00:16:08.122Z,106.00
2022-12-26T00:20:10.342Z,95.63
2022-12-26T00:24:12.432Z,97.30
2022-12-26T00:28:14.091Z,99.22
2022-12-26T00:32:16.131Z,108.63
2022-12-26T00:36:21.226Z,97.65
2022-12-26T00:40:24.407Z,99.10
2022-12-26T00:44:26.329Z,114.95
2022-12-26T00:48:28.990Z,117.75
2022-12-26T00:52:30.628Z,101.35
2022-12-26T00:56:32.826Z,109.90
2022-12-26T01:00:35.240Z,97.63
2022-12-26T01:04:37.201Z,91.28
2022-12-26T01:08:39.303Z,90.20
2022-12-26T01:12:41.593Z,110.13
2022-12-26T01:16:45.209Z,97.60
2022-12-26T01:20:47.812Z,106.55
2022-12-26T01:24:49.415Z,121.07
2022-12-26T01:28:53.093Z,113.28
2022-12-26T01:32:54.758Z,99.90
2022-12-26T01:36:56.866Z,106.85
2022-12-26T01:41:16.977Z,103.15
2022-12-26T01:45:29.712Z,123.18
2022-12-26T01:49:37.738Z,121.78
2022-12-26T01:53:45.466Z,114.10
2022-12-26T01:57:58.098Z,135.77
2022-12-26T02:02:00.832Z,120.68
2022-12-26T02:06:03.120Z,122.82
2022-12-26T02:10:10.362Z,136.60
2022-12-26T02:14:12.603Z,147.45
2022-12-26T02:18:14.547Z,150.50
2022-12-26T02:22:48.279Z,154.48
2022-12-26T02:27:11.471Z,150.57
2022-12-26T02:31:16.068Z,144.82
2022-12-26T02:35:42.713Z,127.03
2022-12-26T02:40:04.544Z,138.77
2022-12-26T02:44:40.944Z,127.82
2022-12-26T02:48:55.119Z,154.73
2022-12-26T02:53:36.835Z,140.23
2022-12-26T02:58:15.734Z,151.52
2022-12-26T03:02:46.772Z,131.60
2022-12-26T03:07:15.855Z,132.95
2022-12-26T03:11:41.504Z,134.18
2022-12-26T03:16:14.075Z,140.60
2022-12-26T03:20:19.978Z,136.43
2022-12-26T03:24:22.763Z,161.20
2022-12-26T03:28:26.175Z,124.88
2022-12-26T03:32:27.826Z,126.57
2022-12-26T03:37:02.541Z,138.55
2022-12-26T03:41:39.739Z,137.82
2022-12-26T03:46:00.362Z,135.25
2022-12-26T03:50:52.761Z,125.90
2022-12-26T03:55:22.941Z,114.50
2022-12-26T03:59:52.352Z,123.50
2022-12-26T04:04:16.509Z,122.22
2022-12-26T04:08:45.058Z,107.35
2022-12-26T04:13:07.708Z,110.57
2022-12-26T04:17:38.712Z,115.85
2022-12-26T04:22:22.250Z,128.02
2022-12-26T04:26:51.131Z,99.13
2022-12-26T04:35:44.914Z,121.75
2022-12-26T04:40:08.009Z,115.65
2022-12-26T04:44:14.748Z,119.47
2022-12-26T04:48:35.078Z,111.78
2022-12-26T04:52:55.192Z,105.90
2022-12-26T04:56:58.085Z,109.68
2022-12-26T05:01:18.330Z,112.90
2022-12-26T05:05:38.662Z,95.63
2022-12-26T05:09:40.421Z,101.13
2022-12-26T05:13:42.509Z,99.15
2022-12-26T05:18:03.115Z,104.82
2022-12-26T05:22:24.344Z,113.32
2022-12-26T05:26:44.849Z,105.50
2022-12-26T05:30:46.987Z,96.30
2022-12-26T05:34:48.699Z,101.38
2022-12-26T05:38:51.401Z,102.53
2022-12-26T05:42:53.059Z,92.43
2022-12-26T05:46:55.093Z,117.00
2022-12-26T05:51:00.867Z,96.68
2022-12-26T05:55:02.961Z,89.07
2022-12-26T05:59:04.732Z,90.25
2022-12-26T06:03:06.861Z,94.22
2022-12-26T06:07:08.678Z,94.70
2022-12-26T06:11:12.727Z,84.68
2022-12-26T06:15:14.480Z,90.18
2022-12-26T06:19:16.435Z,78.15
2022-12-26T06:23:18.120Z,87.03
2022-12-26T06:27:20.143Z,76.00
2022-12-26T06:31:23.543Z,76.25
2022-12-26T06:35:25.631Z,73.18
2022-12-26T06:39:27.276Z,70.47
2022-12-26T06:43:29.173Z,67.28
2022-12-26T06:47:31.569Z,82.72
2022-12-26T06:51:33.599Z,73.53
2022-12-26T06:55:35.327Z,73.05
2022-12-26T06:59:37.280Z,71.00
2022-12-26T07:03:43.167Z,74.15
2022-12-26T07:07:52.360Z,69.10
2022-12-26T07:11:56.343Z,73.50
2022-12-26T07:16:01.301Z,71.90
2022-12-26T07:20:04.880Z,76.30
2022-12-26T07:24:08.840Z,66.00
2022-12-26T07:28:10.734Z,71.60
2022-12-26T07:32:13.006Z,72.38
2022-12-26T07:36:14.913Z,63.08
2022-12-26T07:40:16.871Z,58.13
2022-12-26T07:44:18.638Z,60.53
2022-12-26T07:48:20.824Z,60.95
2022-12-26T07:52:23.142Z,59.55
2022-12-26T07:56:25.108Z,59.40
2022-12-26T08:00:26.836Z,55.60
2022-12-26T08:04:29.652Z,56.50
2022-12-26T08:08:31.418Z,61.08
2022-12-26T08:12:34.318Z,49.47
2022-12-26T08:16:36.092Z,58.55
2022-12-26T08:20:38.109Z,55.65
2022-12-26T08:24:39.778Z,53.65
2022-12-26T08:28:41.851Z,60.67
2022-12-26T08:32:46.350Z,59.00
2022-12-26T08:36:52.189Z,59.97
2022-12-26T08:40:56.135Z,64.15
2022-12-26T08:44:58.388Z,56.53
2022-12-26T08:49:00.751Z,59.15
2022-12-26T08:53:03.251Z,58.13
2022-12-26T08:57:04.877Z,62.83
2022-12-26T09:01:08.169Z,67.53
2022-12-26T09:05:10.053Z,61.97
2022-12-26T09:09:12.761Z,60.92
2022-12-26T09:13:14.453Z,68.72
2022-12-26T09:17:17.270Z,60.35
2022-12-26T09:21:19.817Z,62.50
2022-12-26T09:25:24.465Z,64.10
2022-12-26T09:29:26.281Z,64.22
2022-12-26T09:33:29.416Z,73.03
2022-12-26T09:37:31.129Z,65.85
2022-12-26T09:41:48.351Z,62.42
2022-12-26T09:46:00.723Z,61.55
2022-12-26T09:50:09.339Z,60.20
2022-12-26T09:54:21.064Z,64.63
2022-12-26T09:58:47.321Z,69.70
2022-12-26T10:02:53.718Z,70.65
2022-12-26T10:07:18.737Z,71.50
2022-12-26T10:11:29.380Z,58.83
2022-12-26T10:15:39.950Z,60.17
2022-12-26T10:20:00.267Z,59.58
2022-12-26T10:24:27.322Z,58.10
2022-12-26T10:28:40.221Z,65.22
2022-12-26T10:32:45.869Z,66.05
2022-12-26T10:36:55.077Z,65.30
2022-12-26T10:41:03.554Z,61.22
2022-12-26T10:45:13.919Z,68.15
2022-12-26T10:49:18.647Z,62.75
2022-12-26T10:53:22.054Z,62.38
2022-12-26T10:57:25.027Z,58.92
2022-12-26T11:01:39.338Z,57.58
2022-12-26T11:06:09.193Z,55.38
2022-12-26T11:10:29.521Z,55.50
2022-12-26T11:14:38.421Z,56.58
2022-12-26T11:18:50.175Z,51.83
2022-12-26T11:22:52.514Z,56.88
2022-12-26T11:27:19.067Z,53.42
2022-12-26T11:31:28.008Z,55.67
2022-12-26T11:35:37.043Z,58.22
2022-12-26T11:39:38.960Z,65.75
2022-12-26T11:43:40.909Z,61.50
2022-12-26T11:47:45.725Z,58.20
2022-12-26T11:51:55.475Z,55.00
2022-12-26T11:56:03.951Z,56.00
2022-12-26T12:00:19.830Z,54.67
2022-12-26T12:04:21.458Z,54.03
2022-12-26T12:09:17.952Z,52.60
2022-12-26T12:13:19.842Z,57.55
2022-12-26T12:17:28.326Z,48.97
2022-12-26T12:21:43.997Z,53.45
2022-12-26T12:25:58.137Z,50.83
2022-12-26T12:30:16.842Z,55.35
2022-12-26T12:34:23.655Z,50.92
2022-12-26T12:38:31.077Z,59.60
2022-12-26T12:42:53.175Z,53.67
2022-12-26T12:47:17.426Z,51.50
2022-12-26T12:51:52.624Z,46.13
2022-12-26T12:56:21.099Z,40.83
2022-12-26T13:00:26.562Z,36.05
2022-12-26T13:04:39.976Z,38.33
2022-12-26T13:08:46.891Z,33.13
2022-12-26T13:12:50.806Z,34.45
2022-12-26T13:17:06.517Z,37.92
2022-12-26T13:21:12.849Z,36.70
2022-12-26T13:25:14.795Z,33.10
2022-12-26T13:29:31.957Z,33.22
2022-12-26T13:33:35.845Z,30.00
2022-12-26T13:37:37.783Z,31.70
2022-12-26T13:42:07.010Z,35.35
2022-12-26T13:50:55.248Z,33.65
2022-12-26T13:55:06.739Z,29.75
2022-12-26T13:59:22.272Z,30.25
2022-12-26T14:03:45.063Z,27.65
2022-12-26T14:07:57.644Z,32.58
2022-12-26T14:12:22.872Z,34.47
2022-12-26T14:16:37.881Z,29.50
2022-12-26T14:20:51.720Z,44.80
2022-12-26T14:25:16.610Z,58.50
2022-12-26T14:29:31.358Z,34.03
2022-12-26T14:34:17.571Z,32.90
2022-12-26T14:39:01.472Z,35.08
2022-12-26T14:43:12.696Z,38.10
2022-12-26T14:47:34.431Z,43.17
2022-12-26T14:51:38.530Z,52.35
2022-12-26T14:55:53.598Z,42.47
2022-12-26T15:00:31.470Z,42.47
2022-12-26T15:04:52.625Z,41.53
2022-12-26T15:09:14.942Z,46.83
2022-12-26T15:13:29.594Z,44.42
2022-12-26T15:17:55.412Z,43.30
2022-12-26T15:22:27.653Z,52.08
2022-12-26T15:27:01.339Z,48.47
2022-12-26T15:31:22.038Z,41.65
2022-12-26T15:35:29.905Z,44.75
2022-12-26T15:39:39.833Z,51.35
2022-12-26T15:44:22.066Z,57.47
2022-12-26T15:48:24.073Z,56.20
2022-12-26T15:52:53.294Z,59.83
2022-12-26T15:57:23.580Z,59.40
2022-12-26T16:01:45.603Z,52.40
2022-12-26T16:05:53.344Z,52.08
2022-12-26T16:09:56.666Z,55.13
2022-12-26T16:14:01.661Z,52.67
2022-12-26T16:18:21.673Z,61.08
2022-12-26T16:22:49.372Z,53.88
2022-12-26T16:26:51.158Z,62.20
2022-12-26T16:30:53.415Z,59.28
2022-12-26T16:34:55.367Z,68.53
2022-12-26T16:38:57.369Z,70.32
2022-12-26T16:43:06.045Z,72.45
2022-12-26T16:47:12.136Z,76.95
2022-12-26T16:51:37.928Z,75.65
2022-12-26T16:55:43.293Z,65.07
2022-12-26T16:59:54.903Z,69.32
2022-12-26T17:04:19.645Z,74.35
2022-12-26T17:08:21.574Z,71.28
2022-12-26T17:12:34.421Z,78.72
2022-12-26T17:16:36.243Z,86.00
2022-12-26T17:20:39.090Z,69.60
2022-12-26T17:24:46.542Z,70.38
2022-12-26T17:28:48.970Z,56.73
2022-12-26T17:32:50.726Z,74.53
2022-12-26T17:37:18.423Z,56.28
2022-12-26T17:41:17.546Z,50.08
2022-12-26T17:45:25.101Z,47.45
2022-12-26T17:49:26.950Z,72.35
2022-12-26T17:53:37.842Z,40.65
2022-12-26T17:57:39.632Z,35.55
2022-12-26T18:01:41.685Z,37.30
2022-12-26T18:05:45.485Z,46.60
2022-12-26T18:09:48.548Z,41.35
2022-12-26T18:13:50.227Z,40.83
2022-12-26T18:17:53.132Z,47.55
2022-12-26T18:21:54.867Z,39.97
2022-12-26T18:26:00.384Z,48.08
2022-12-26T18:30:02.256Z,40.83
2022-12-26T18:34:04.337Z,53.88
2022-12-26T18:38:06.534Z,53.50
2022-12-26T18:42:13.652Z,78.88
2022-12-26T18:46:22.941Z,54.45
2022-12-26T18:50:25.051Z,44.60
2022-12-26T18:54:26.765Z,43.38
2022-12-26T18:58:28.754Z,51.10
2022-12-26T19:02:30.590Z,44.10
2022-12-26T19:06:35.122Z,43.83
2022-12-26T19:10:37.169Z,89.95
2022-12-26T19:14:40.082Z,88.78
2022-12-26T19:18:41.803Z,112.85
2022-12-26T19:22:45.250Z,51.13
2022-12-26T19:26:46.940Z,48.03
2022-12-26T19:30:48.950Z,73.13
2022-12-26T19:34:50.732Z,103.28
2022-12-26T19:38:54.235Z,118.57
2022-12-26T19:42:55.936Z,100.45
2022-12-26T19:47:11.778Z,80.30
2022-12-26T19:51:16.262Z,82.85
2022-12-26T19:55:18.433Z,66.50
2022-12-26T19:59:20.326Z,54.95
2022-12-26T20:03:22.419Z,51.20
2022-12-26T20:07:24.126Z,51.72
2022-12-26T20:11:36.016Z,64.55
2022-12-26T20:15:37.693Z,52.75
2022-12-26T20:19:39.654Z,107.88
2022-12-26T20:23:41.842Z,69.55
2022-12-26T20:27:44.481Z,73.35
2022-12-26T20:31:46.247Z,68.13
2022-12-26T20:35:48.240Z,91.25
2022-12-26T20:39:49.949Z,47.63
2022-12-26T20:43:52.174Z,45.88
2022-12-26T20:47:53.949Z,58.28
2022-12-26T20:51:55.841Z,76.85
2022-12-26T20:55:58.945Z,146.18
2022-12-26T21:00:00.981Z,50.55
2022-12-26T21:04:03.797Z,42.75
2022-12-26T21:08:06.304Z,37.85
2022-12-26T21:12:08.052Z,40.35
2022-12-26T21:16:22.091Z,54.03
2022-12-26T21:20:25.387Z,35.28
2022-12-26T21:24:30.507Z,56.33
2022-12-26T21:28:33.209Z,38.95
2022-12-26T21:32:35.198Z,46.78
2022-12-26T21:36:39.049Z,47.92
2022-12-26T21:40:43.274Z,53.42
2022-12-26T21:44:44.997Z,57.25
2022-12-26T21:48:47.397Z,60.53
2022-12-26T21:52:49.261Z,65.43
2022-12-26T21:56:51.232Z,54.00
2022-12-26T22:00:52.932Z,84.47
2022-12-26T22:04:55.102Z,60.05
2022-12-26T22:08:56.850Z,58.33
2022-12-26T22:12:59.454Z,38.33
2022-12-26T22:17:01.380Z,41.20
2022-12-26T22:21:15.173Z,57.60
2022-12-26T22:25:16.920Z,48.47
2022-12-26T22:29:18.930Z,50.35
2022-12-26T22:33:21.087Z,49.47
2022-12-26T22:37:22.848Z,41.78
2022-12-26T22:41:25.774Z,92.93
2022-12-26T22:45:27.412Z,48.53
2022-12-26T22:49:29.629Z,55.47
2022-12-26T22:53:32.128Z,46.97
2022-12-26T22:57:34.216Z,46.45
2022-12-26T23:01:36.024Z,42.88
2022-12-26T23:05:39.117Z,57.60
2022-12-26T23:09:40.976Z,44.70
2022-12-26T23:13:43.193Z,37.35
2022-12-26T23:18:28.071Z,44.22
2022-12-26T23:22:30.420Z,41.38
2022-12-26T23:26:32.125Z,50.55
2022-12-26T23:30:34.290Z,37.10
2022-12-26T23:34:36.421Z,37.85
2022-12-26T23:38:38.451Z,45.78
2022-12-26T23:42:40.175Z,44.08
2022-12-26T23:46:44.463Z,37.35
2022-12-26T23:50:46.289Z,46.85
2022-12-26T23:54:48.328Z,48.35
2022-12-26T23:58:50.009Z,40.53
